Time;durP1;ratioP1;P1;durP2;ratioP2;P2;SDS_P1;SDS_P2;PMS_P1;PMS_P2;Temp;Humidity;BMP_temperature;BMP_pressure;BME280_temperature;BME280_humidity;BME280_pressure;Samples;Min_cycle;Max_cycle;Signal;HPM_P1;HPM_P2
2023/01/02 00:01:43;;;;;;;;;;;10.40;99.90;;;;;;5124138;28;20183;-71
2023/01/02 00:04:09;;;;;;;;;;;10.30;99.90;;;;;;5125457;28;20184;-71
2023/01/02 00:06:37;;;;;;;;;;;10.20;99.90;;;;;;5127944;28;19959;-70
2023/01/02 00:09:04;;;;;;;;;;;10.20;99.90;;;;;;5128216;28;19955;-70
2023/01/02 00:11:31;;;;;;;;;;;10.10;99.90;;;;;;5128200;27;20226;-70
2023/01/02 00:13:58;;;;;;;;;;;10.10;99.90;;;;;;5127907;28;19926;-70
2023/01/02 00:16:24;;;;;;;;;;;10.00;99.90;;;;;;5127721;28;20247;-70
2023/01/02 00:18:52;;;;;;;;;;;10.00;99.90;;;;;;5127804;28;19990;-70
2023/01/02 00:21:19;;;;;;;;;;;10.00;99.90;;;;;;5127790;28;19947;-70
2023/01/02 00:23:46;;;;;;;;;;;9.90;99.90;;;;;;5127943;27;19962;-68
2023/01/02 00:26:12;;;;;;;;;;;9.90;99.90;;;;;;5127373;28;20290;-70
2023/01/02 00:28:39;;;;;;;;;;;9.80;99.90;;;;;;5127626;28;19982;-70
2023/01/02 00:31:06;;;;;;;;;;;9.80;99.90;;;;;;5127737;28;19955;-70
2023/01/02 00:33:33;;;;;;;;;;;9.80;99.90;;;;;;5127917;27;19986;-70
2023/01/02 00:36:04;;;;;;;;;;;9.70;99.90;;;;;;5127303;28;20006;-70
2023/01/02 00:38:31;;;;;;;;;;;9.70;99.90;;;;;;5127446;27;20267;-70
2023/01/02 00:40:57;;;;;;;;;;;9.70;99.90;;;;;;5127742;28;19951;-70
2023/01/02 00:43:24;;;;;;;;;;;9.70;99.90;;;;;;5127393;27;19983;-70
2023/01/02 00:45:50;;;;;;;;;;;9.60;99.90;;;;;;5127413;27;19991;-70
2023/01/02 00:48:17;;;;;;;;;;;9.60;99.90;;;;;;5127572;28;20160;-70
2023/01/02 00:50:44;;;;;;;;;;;9.60;99.90;;;;;;5127267;28;19951;-71
2023/01/02 00:53:12;;;;;;;;;;;9.60;99.90;;;;;;5127553;28;20002;-70
2023/01/02 00:55:38;;;;;;;;;;;9.70;99.90;;;;;;5127258;28;19920;-70
2023/01/02 00:58:05;;;;;;;;;;;9.70;99.90;;;;;;5127203;28;19927;-70
2023/01/02 01:00:31;;;;;;;;;;;9.70;99.90;;;;;;5127041;28;19986;-70
2023/01/02 01:02:58;;;;;;;;;;;9.70;99.90;;;;;;5126986;28;20180;-70
2023/01/02 01:05:25;;;;;;;;;;;9.60;99.90;;;;;;5127169;28;19959;-70
2023/01/02 01:07:53;;;;;;;;;;;9.60;99.90;;;;;;5126791;28;20222;-70
2023/01/02 01:10:21;;;;;;;;;;;9.60;99.90;;;;;;5127305;28;19951;-70
2023/01/02 01:12:50;;;;;;;;;;;9.60;99.90;;;;;;5126711;28;20087;-70
2023/01/02 01:15:16;;;;;;;;;;;9.60;99.90;;;;;;5129493;27;19919;-70
2023/01/02 01:17:43;;;;;;;;;;;9.60;99.90;;;;;;5147183;27;19926;-70
2023/01/02 01:20:10;;;;;;;;;;;9.60;99.90;;;;;;5147410;27;19962;-72
2023/01/02 01:22:37;;;;;;;;;;;9.70;99.90;;;;;;5147076;27;20166;-70
2023/01/02 01:25:04;;;;;;;;;;;9.60;99.90;;;;;;5146893;27;19958;-71
2023/01/02 01:27:32;;;;;;;;;;;9.70;99.90;;;;;;5146688;27;19925;-70
2023/01/02 01:29:58;;;;;;;;;;;9.70;99.90;;;;;;5147221;27;19920;-70
2023/01/02 01:32:25;;;;;;;;;;;9.70;99.90;;;;;;5147019;27;19990;-70
2023/01/02 01:34:52;;;;;;;;;;;9.70;99.90;;;;;;5147265;27;19983;-70
2023/01/02 01:37:18;;;;;;;;;;;9.70;99.90;;;;;;5146675;27;19955;-70
2023/01/02 01:39:45;;;;;;;;;;;9.70;99.90;;;;;;5147166;27;19954;-70
2023/01/02 01:42:12;;;;;;;;;;;9.70;99.90;;;;;;5147111;27;19919;-70
2023/01/02 01:44:45;;;;;;;;;;;9.80;99.90;;;;;;5146779;27;19926;-70
2023/01/02 01:47:15;;;;;;;;;;;9.70;99.90;;;;;;5146418;27;20226;-70
2023/01/02 01:49:42;;;;;;;;;;;9.70;99.90;;;;;;5146553;27;19983;-70
2023/01/02 01:52:12;;;;;;;;;;;9.70;99.90;;;;;;5146428;27;19945;-75
2023/01/02 01:54:41;;;;;;;;;;;9.60;99.90;;;;;;5146668;27;19926;-70
2023/01/02 01:57:11;;;;;;;;;;;9.60;99.90;;;;;;5146129;27;20274;-70
2023/01/02 01:59:39;;;;;;;;;;;9.60;99.90;;;;;;5146758;27;19920;-70
2023/01/02 02:02:07;;;;;;;;;;;9.60;99.90;;;;;;5146620;27;19927;-70
2023/01/02 02:04:34;;;;;;;;;;;9.60;99.90;;;;;;5146099;27;19998;-70
2023/01/02 02:07:01;;;;;;;;;;;9.60;99.90;;;;;;5145743;27;19995;-70
2023/01/02 02:09:31;;;;;;;;;;;9.60;99.90;;;;;;5146126;27;19939;-70
2023/01/02 02:11:57;;;;;;;;;;;9.60;99.90;;;;;;5146480;27;19919;-70
2023/01/02 02:14:24;;;;;;;;;;;9.50;99.90;;;;;;5146260;27;19946;-70
2023/01/02 02:16:53;;;;;;;;;;;9.50;99.90;;;;;;5145693;27;20266;-70
2023/01/02 02:19:35;;;;;;;;;;;9.50;99.90;;;;;;5145972;27;19986;-70
2023/01/02 02:22:11;;;;;;;;;;;9.40;99.90;;;;;;5132856;27;19991;-70
2023/01/02 02:24:59;;;;;;;;;;;9.40;99.90;;;;;;5146167;27;19951;-70
2023/01/02 02:27:32;;;;;;;;;;;9.40;99.90;;;;;;5139896;27;19951;-70
2023/01/02 02:30:10;;;;;;;;;;;9.40;99.90;;;;;;5145917;27;20114;-70
2023/01/02 02:32:47;;;;;;;;;;;9.30;99.90;;;;;;5146278;27;19977;-70
2023/01/02 02:35:18;;;;;;;;;;;9.30;99.90;;;;;;5145830;27;19994;-70
2023/01/02 02:37:50;;;;;;;;;;;9.30;99.90;;;;;;5145115;27;19955;-70
2023/01/02 02:40:19;;;;;;;;;;;9.30;99.90;;;;;;5145837;27;19986;-70
2023/01/02 02:42:50;;;;;;;;;;;9.20;99.90;;;;;;5145618;27;20459;-70
2023/01/02 02:45:30;;;;;;;;;;;9.30;99.90;;;;;;5145453;27;19982;-71
2023/01/02 02:48:00;;;;;;;;;;;9.20;99.90;;;;;;5145095;27;19926;-75
2023/01/02 02:50:29;;;;;;;;;;;9.20;99.90;;;;;;5145547;27;19942;-70
2023/01/02 02:52:58;;;;;;;;;;;9.10;99.90;;;;;;5145472;27;20170;-70
2023/01/02 02:55:28;;;;;;;;;;;9.10;99.90;;;;;;5145640;27;19990;-70
2023/01/02 02:57:56;;;;;;;;;;;9.10;99.90;;;;;;5145421;27;19919;-70
2023/01/02 03:00:24;;;;;;;;;;;9.00;99.90;;;;;;5145281;27;19978;-70
2023/01/02 03:02:51;;;;;;;;;;;9.00;99.90;;;;;;5145421;27;19919;-70
2023/01/02 03:05:21;;;;;;;;;;;9.00;99.90;;;;;;5124822;28;19982;-70
2023/01/02 03:07:53;;;;;;;;;;;9.00;99.90;;;;;;5121349;28;19979;-70
2023/01/02 03:10:23;;;;;;;;;;;9.00;99.90;;;;;;5132061;27;20262;-70
2023/01/02 03:12:54;;;;;;;;;;;9.00;99.90;;;;;;5145282;27;19990;-70
2023/01/02 03:15:26;;;;;;;;;;;9.00;99.90;;;;;;5145430;27;19926;-71
2023/01/02 03:18:02;;;;;;;;;;;9.00;99.90;;;;;;5144345;27;20262;-70
2023/01/02 03:20:32;;;;;;;;;;;8.90;99.90;;;;;;5145324;27;20154;-70
2023/01/02 03:23:01;;;;;;;;;;;8.90;99.90;;;;;;5144928;27;19950;-70
2023/01/02 03:25:28;;;;;;;;;;;8.90;99.90;;;;;;5144461;27;19929;-70
2023/01/02 03:27:56;;;;;;;;;;;8.90;99.90;;;;;;5144444;27;19970;-70
2023/01/02 03:30:23;;;;;;;;;;;8.90;99.90;;;;;;5145122;27;19998;-70
2023/01/02 03:32:51;;;;;;;;;;;8.80;99.90;;;;;;5145104;27;20001;-70
2023/01/02 03:35:21;;;;;;;;;;;8.80;99.90;;;;;;5145086;27;19927;-70
2023/01/02 03:37:49;;;;;;;;;;;8.80;99.90;;;;;;5144425;27;19924;-70
2023/01/02 03:40:18;;;;;;;;;;;8.70;99.90;;;;;;5145157;27;20285;-70
2023/01/02 03:42:47;;;;;;;;;;;8.80;99.90;;;;;;5144793;27;19950;-69
2023/01/02 03:45:16;;;;;;;;;;;8.80;99.90;;;;;;5143837;27;19925;-70
2023/01/02 03:47:48;;;;;;;;;;;8.80;99.90;;;;;;5144655;27;19998;-70
2023/01/02 03:50:16;;;;;;;;;;;8.70;99.90;;;;;;5144720;27;20174;-70
2023/01/02 03:52:44;;;;;;;;;;;8.70;99.90;;;;;;5144726;27;19941;-70
2023/01/02 03:55:11;;;;;;;;;;;8.70;99.90;;;;;;5144805;27;19919;-70
2023/01/02 03:57:45;;;;;;;;;;;8.70;99.90;;;;;;5144368;27;19962;-70
2023/01/02 04:00:14;;;;;;;;;;;8.60;99.90;;;;;;5144731;27;20145;-70
2023/01/02 04:02:46;;;;;;;;;;;8.60;99.90;;;;;;5144786;27;19920;-70
2023/01/02 04:05:14;;;;;;;;;;;8.60;99.90;;;;;;5144382;27;19943;-70
2023/01/02 04:07:44;;;;;;;;;;;8.60;99.90;;;;;;5144122;27;19919;-70
2023/01/02 04:10:13;;;;;;;;;;;8.60;99.90;;;;;;5144716;27;19920;-70
2023/01/02 04:12:41;;;;;;;;;;;8.70;99.90;;;;;;5144555;27;19978;-70
2023/01/02 04:15:09;;;;;;;;;;;8.70;99.90;;;;;;5144620;27;19986;-70
2023/01/02 04:17:45;;;;;;;;;;;8.60;99.90;;;;;;5143087;27;19926;-70
2023/01/02 04:20:15;;;;;;;;;;;8.70;99.90;;;;;;5144378;27;19926;-70
2023/01/02 04:22:44;;;;;;;;;;;8.60;99.90;;;;;;5144509;27;19998;-70
2023/01/02 04:25:13;;;;;;;;;;;8.60;99.90;;;;;;5144672;27;20002;-70
2023/01/02 04:27:43;;;;;;;;;;;8.60;99.90;;;;;;5144000;27;19920;-70
2023/01/02 04:30:10;;;;;;;;;;;8.60;99.90;;;;;;5144618;27;19955;-70
2023/01/02 04:32:38;;;;;;;;;;;8.60;99.90;;;;;;5144632;27;19991;-71
2023/01/02 04:35:05;;;;;;;;;;;8.60;99.90;;;;;;5144600;27;20106;-70
2023/01/02 04:37:34;;;;;;;;;;;8.70;99.90;;;;;;5144164;27;19941;-70
2023/01/02 04:40:02;;;;;;;;;;;8.60;99.90;;;;;;5144289;27;20427;-70
2023/01/02 04:42:30;;;;;;;;;;;8.60;99.90;;;;;;5144365;27;19919;-70
2023/01/02 04:44:57;;;;;;;;;;;8.60;99.90;;;;;;5144024;27;19924;-70
2023/01/02 04:47:23;;;;;;;;;;;8.60;99.90;;;;;;5143668;27;19999;-70
2023/01/02 04:49:50;;;;;;;;;;;8.50;99.90;;;;;;5144372;27;19958;-70
2023/01/02 04:52:18;;;;;;;;;;;8.50;99.90;;;;;;5134901;27;19962;-70
2023/01/02 04:54:44;;;;;;;;;;;8.50;99.90;;;;;;5138078;27;19919;-70
2023/01/02 04:57:15;;;;;;;;;;;8.50;99.90;;;;;;5146858;27;19919;-70
2023/01/02 04:59:43;;;;;;;;;;;8.50;99.90;;;;;;5147714;27;19920;-70
2023/01/02 05:02:10;;;;;;;;;;;8.50;99.90;;;;;;5147738;27;19926;-70
2023/01/02 05:04:36;;;;;;;;;;;8.40;99.90;;;;;;5147735;27;19951;-70
2023/01/02 05:07:03;;;;;;;;;;;8.50;99.90;;;;;;5146825;27;19959;-70
2023/01/02 05:09:32;;;;;;;;;;;8.50;99.90;;;;;;5147055;27;19919;-70
2023/01/02 05:11:59;;;;;;;;;;;8.50;99.90;;;;;;5147907;27;19962;-70
2023/01/02 05:14:26;;;;;;;;;;;8.40;99.90;;;;;;5147402;27;19939;-70
2023/01/02 05:16:54;;;;;;;;;;;8.40;99.90;;;;;;5126599;28;19924;-70
2023/01/02 05:19:20;;;;;;;;;;;8.50;99.90;;;;;;5126979;28;19926;-70
2023/01/02 05:24:31;;;;;;;;;;;8.40;99.90;;;;;;5126648;28;19984;-71
2023/01/02 05:26:57;;;;;;;;;;;8.40;99.90;;;;;;5126151;28;20258;-70
2023/01/02 05:29:24;;;;;;;;;;;8.40;99.90;;;;;;5126875;28;19962;-70
2023/01/02 05:31:51;;;;;;;;;;;8.40;99.90;;;;;;5126763;28;19920;-70
2023/01/02 05:34:19;;;;;;;;;;;8.40;99.90;;;;;;5126676;28;20181;-70
2023/01/02 05:36:45;;;;;;;;;;;8.40;99.90;;;;;;5128536;27;19926;-69
2023/01/02 05:39:13;;;;;;;;;;;8.40;99.90;;;;;;5132638;27;19951;-70
2023/01/02 05:41:40;;;;;;;;;;;8.40;99.90;;;;;;5147045;27;20200;-70
2023/01/02 05:44:07;;;;;;;;;;;8.50;99.90;;;;;;5146807;27;19982;-70
2023/01/02 05:46:34;;;;;;;;;;;8.50;99.90;;;;;;5146723;27;19926;-70
2023/01/02 05:49:08;;;;;;;;;;;8.50;99.90;;;;;;5146207;27;19925;-70
2023/01/02 05:51:36;;;;;;;;;;;8.40;99.90;;;;;;5147150;27;19998;-70
2023/01/02 05:54:03;;;;;;;;;;;8.40;99.90;;;;;;5143448;27;19979;-70
2023/01/02 05:56:30;;;;;;;;;;;8.40;99.90;;;;;;5128778;27;20229;-70
2023/01/02 05:58:57;;;;;;;;;;;8.40;99.90;;;;;;5145671;27;20293;-70
2023/01/02 06:01:24;;;;;;;;;;;8.50;99.90;;;;;;5146778;27;19920;-70
2023/01/02 06:03:52;;;;;;;;;;;8.40;99.90;;;;;;5146814;27;19982;-70
2023/01/02 06:06:20;;;;;;;;;;;8.40;99.90;;;;;;5146010;27;19979;-71
2023/01/02 06:08:48;;;;;;;;;;;8.40;99.90;;;;;;5146383;27;19919;-70
2023/01/02 06:11:14;;;;;;;;;;;8.40;99.90;;;;;;5146724;27;19934;-70
2023/01/02 06:13:41;;;;;;;;;;;8.40;99.90;;;;;;5146620;27;19982;-70
2023/01/02 06:16:08;;;;;;;;;;;8.40;99.90;;;;;;5146304;27;19920;-70
2023/01/02 06:18:36;;;;;;;;;;;8.30;99.90;;;;;;5146341;27;19986;-70
2023/01/02 06:21:04;;;;;;;;;;;8.40;99.90;;;;;;5146393;27;19982;-70
2023/01/02 06:23:31;;;;;;;;;;;8.30;99.90;;;;;;5146295;27;19982;-70
2023/01/02 06:26:03;;;;;;;;;;;8.30;99.90;;;;;;5145895;27;19925;-71
2023/01/02 06:28:30;;;;;;;;;;;8.30;99.90;;;;;;5145994;27;19920;-71
2023/01/02 06:30:59;;;;;;;;;;;8.30;99.90;;;;;;5146285;27;19998;-71
2023/01/02 06:33:25;;;;;;;;;;;8.30;99.90;;;;;;5145987;27;20108;-71
2023/01/02 06:35:56;;;;;;;;;;;8.30;99.90;;;;;;5146034;27;19951;-71
2023/01/02 06:38:23;;;;;;;;;;;8.30;99.90;;;;;;5144587;27;20229;-71
2023/01/02 06:40:52;;;;;;;;;;;8.20;99.90;;;;;;5146157;27;19990;-71
2023/01/02 06:43:20;;;;;;;;;;;8.20;99.90;;;;;;5145567;27;19926;-71
2023/01/02 06:45:46;;;;;;;;;;;8.20;99.90;;;;;;5145603;27;19920;-71
2023/01/02 06:48:13;;;;;;;;;;;8.20;99.90;;;;;;5145544;27;19919;-71
2023/01/02 06:50:40;;;;;;;;;;;8.20;99.90;;;;;;5145967;27;19951;-71
2023/01/02 06:53:06;;;;;;;;;;;8.10;99.90;;;;;;5145869;27;19983;-71
2023/01/02 06:55:33;;;;;;;;;;;8.10;99.90;;;;;;5145610;27;20159;-71
2023/01/02 06:57:59;;;;;;;;;;;8.10;99.90;;;;;;5145252;27;19958;-71
2023/01/02 07:00:27;;;;;;;;;;;8.10;99.90;;;;;;5145961;27;19961;-71
2023/01/02 07:02:54;;;;;;;;;;;8.00;99.90;;;;;;5145703;27;19925;-71
2023/01/02 07:05:21;;;;;;;;;;;8.10;99.90;;;;;;5145686;27;20154;-71
2023/01/02 07:07:47;;;;;;;;;;;8.10;99.90;;;;;;5144976;27;19919;-71
2023/01/02 07:10:14;;;;;;;;;;;8.10;99.90;;;;;;5145646;27;19951;-72
2023/01/02 07:12:41;;;;;;;;;;;8.10;99.90;;;;;;5145109;27;19982;-71
2023/01/02 07:15:07;;;;;;;;;;;8.10;99.90;;;;;;5145487;27;19982;-71
2023/01/02 07:17:35;;;;;;;;;;;8.00;99.90;;;;;;5145162;27;19919;-71
2023/01/02 07:20:02;;;;;;;;;;;8.00;99.90;;;;;;5124844;28;19927;-71
2023/01/02 07:22:29;;;;;;;;;;;8.00;99.90;;;;;;5124583;28;19962;-71
2023/01/02 07:24:55;;;;;;;;;;;8.00;99.90;;;;;;5124887;28;19955;-71
2023/01/02 07:27:22;;;;;;;;;;;8.00;99.90;;;;;;5139546;27;19954;-71
2023/01/02 07:29:48;;;;;;;;;;;8.00;99.90;;;;;;5144876;27;19987;-70
2023/01/02 07:32:15;;;;;;;;;;;8.00;99.90;;;;;;5145073;27;19982;-71
2023/01/02 07:34:43;;;;;;;;;;;8.00;99.90;;;;;;5145157;27;19982;-70
2023/01/02 07:37:10;;;;;;;;;;;8.00;99.90;;;;;;5145811;27;19978;-71
2023/01/02 07:39:38;;;;;;;;;;;8.00;99.90;;;;;;5151581;27;20257;-71
2023/01/02 07:42:05;;;;;;;;;;;8.00;99.90;;;;;;5144840;27;19957;-71
2023/01/02 07:44:31;;;;;;;;;;;8.00;99.90;;;;;;5144825;27;19919;-69
2023/01/02 07:46:58;;;;;;;;;;;8.00;99.90;;;;;;5144434;27;19990;-70
2023/01/02 07:49:25;;;;;;;;;;;8.10;99.90;;;;;;5145213;27;19961;-71
2023/01/02 07:51:53;;;;;;;;;;;8.10;99.90;;;;;;5144660;27;20162;-72
2023/01/02 07:54:19;;;;;;;;;;;8.00;99.90;;;;;;5144894;27;19978;-71
2023/01/02 07:56:46;;;;;;;;;;;8.00;99.90;;;;;;5144721;27;19966;-71
2023/01/02 07:59:13;;;;;;;;;;;8.00;99.90;;;;;;5144882;27;19920;-71
2023/01/02 08:01:39;;;;;;;;;;;8.00;99.90;;;;;;5144609;27;19954;-71
2023/01/02 08:04:06;;;;;;;;;;;8.10;99.90;;;;;;5144530;27;19962;-70
2023/01/02 08:06:33;;;;;;;;;;;8.10;99.90;;;;;;5144501;27;19986;-71
2023/01/02 08:09:01;;;;;;;;;;;8.10;99.90;;;;;;5144845;27;19982;-71
2023/01/02 08:11:27;;;;;;;;;;;8.10;99.90;;;;;;5144799;27;19980;-71
2023/01/02 08:13:54;;;;;;;;;;;8.00;99.90;;;;;;5144737;27;20106;-71
2023/01/02 08:16:21;;;;;;;;;;;8.00;99.90;;;;;;5144423;27;19990;-71
2023/01/02 08:18:50;;;;;;;;;;;8.10;99.90;;;;;;5144549;27;19982;-70
2023/01/02 08:21:16;;;;;;;;;;;8.10;99.90;;;;;;5144708;27;19923;-72
2023/01/02 08:23:43;;;;;;;;;;;8.10;99.90;;;;;;5144268;27;19920;-71
2023/01/02 08:26:11;;;;;;;;;;;8.10;99.90;;;;;;5147051;27;19982;-71
2023/01/02 08:28:39;;;;;;;;;;;8.10;99.90;;;;;;5136685;27;19986;-71
2023/01/02 08:31:07;;;;;;;;;;;8.20;99.90;;;;;;5148373;27;19982;-71
2023/01/02 08:33:34;;;;;;;;;;;8.20;99.90;;;;;;5148627;27;19986;-71
2023/01/02 08:36:00;;;;;;;;;;;8.20;99.90;;;;;;5148293;27;19958;-70
2023/01/02 08:38:33;;;;;;;;;;;8.20;99.90;;;;;;5147843;27;19947;-71
2023/01/02 08:41:00;;;;;;;;;;;8.30;99.90;;;;;;5148543;27;19957;-71
2023/01/02 08:43:28;;;;;;;;;;;8.30;99.90;;;;;;5148204;27;19978;-72
2023/01/02 08:45:54;;;;;;;;;;;8.30;99.90;;;;;;5148064;27;20102;-71
2023/01/02 08:48:21;;;;;;;;;;;8.30;99.90;;;;;;5147700;27;19990;-71
2023/01/02 08:50:48;;;;;;;;;;;8.40;99.90;;;;;;5147910;27;19951;-71
2023/01/02 08:53:17;;;;;;;;;;;8.40;99.90;;;;;;5146696;27;19923;-71
2023/01/02 08:55:43;;;;;;;;;;;8.40;99.90;;;;;;5168310;27;19986;-71
2023/01/02 08:58:10;;;;;;;;;;;8.40;99.90;;;;;;5168370;27;19950;-72
2023/01/02 09:00:38;;;;;;;;;;;8.50;99.90;;;;;;5168582;27;20296;-72
2023/01/02 09:03:05;;;;;;;;;;;8.50;99.90;;;;;;5168400;27;20203;-72
2023/01/02 09:05:31;;;;;;;;;;;8.60;99.90;;;;;;5168362;27;20206;-76
2023/01/02 09:07:58;;;;;;;;;;;8.60;99.90;;;;;;5165930;27;19919;-71
2023/01/02 09:10:25;;;;;;;;;;;8.70;99.90;;;;;;5147762;27;19958;-72
2023/01/02 09:12:52;;;;;;;;;;;8.70;99.90;;;;;;5147962;27;19986;-72
2023/01/02 09:15:18;;;;;;;;;;;8.80;99.90;;;;;;5147907;27;19951;-70
2023/01/02 09:17:46;;;;;;;;;;;8.80;99.90;;;;;;5147119;27;19986;-70
2023/01/02 09:20:13;;;;;;;;;;;8.80;99.90;;;;;;5147338;27;19926;-70
2023/01/02 09:22:40;;;;;;;;;;;8.90;99.90;;;;;;5147579;27;19958;-71
2023/01/02 09:25:07;;;;;;;;;;;8.90;99.90;;;;;;5147499;27;20088;-70
2023/01/02 09:27:34;;;;;;;;;;;9.00;99.90;;;;;;5147225;27;19990;-70
2023/01/02 09:30:01;;;;;;;;;;;9.10;99.90;;;;;;5146942;27;19919;-71
2023/01/02 09:32:28;;;;;;;;;;;9.20;99.90;;;;;;5147144;27;19986;-71
2023/01/02 09:34:56;;;;;;;;;;;9.20;99.90;;;;;;5147103;27;20357;-71
2023/01/02 09:37:25;;;;;;;;;;;9.30;99.90;;;;;;5146373;27;19980;-70
2023/01/02 09:39:51;;;;;;;;;;;9.30;99.90;;;;;;5147327;27;19990;-70
2023/01/02 09:42:18;;;;;;;;;;;9.30;99.90;;;;;;5146841;27;20274;-71
2023/01/02 09:44:46;;;;;;;;;;;9.40;99.90;;;;;;5147252;27;19920;-71
2023/01/02 09:47:14;;;;;;;;;;;9.40;99.90;;;;;;5146812;27;19920;-71
2023/01/02 09:49:42;;;;;;;;;;;9.50;99.90;;;;;;5147214;27;20120;-71
2023/01/02 09:52:15;;;;;;;;;;;9.50;99.90;;;;;;5124415;28;19919;-72
2023/01/02 09:54:42;;;;;;;;;;;9.60;99.90;;;;;;5125716;28;20271;-70
2023/01/02 09:57:31;;;;;;;;;;;9.70;99.90;;;;;;5125414;28;19986;-71
2023/01/02 10:00:01;;;;;;;;;;;9.80;99.90;;;;;;5126290;28;20114;-70
2023/01/02 10:02:42;;;;;;;;;;;9.80;99.90;;;;;;5126403;28;19951;-71
2023/01/02 10:05:24;;;;;;;;;;;9.90;99.90;;;;;;5126170;28;19919;-71
2023/01/02 10:07:55;;;;;;;;;;;9.90;99.90;;;;;;5125185;28;20290;-70
2023/01/02 10:10:26;;;;;;;;;;;10.00;99.90;;;;;;5125868;28;20286;-71
2023/01/02 10:13:01;;;;;;;;;;;10.10;99.90;;;;;;5126085;28;19927;-71
2023/01/02 10:15:29;;;;;;;;;;;10.20;99.90;;;;;;5125678;28;19920;-72
2023/01/02 10:17:58;;;;;;;;;;;10.20;99.90;;;;;;5124910;28;19919;-71
2023/01/02 10:20:28;;;;;;;;;;;10.40;99.90;;;;;;5125600;28;20278;-71
2023/01/02 10:22:59;;;;;;;;;;;10.50;99.90;;;;;;5122944;28;20230;-71
2023/01/02 10:25:27;;;;;;;;;;;10.50;99.90;;;;;;5125662;28;19962;-71
2023/01/02 10:28:14;;;;;;;;;;;10.60;99.90;;;;;;5125013;28;19920;-72
2023/01/02 10:30:42;;;;;;;;;;;10.60;99.90;;;;;;5122796;28;19994;-71
2023/01/02 10:33:11;;;;;;;;;;;10.60;99.90;;;;;;5125485;28;19990;-72
2023/01/02 10:35:39;;;;;;;;;;;10.70;99.90;;;;;;5124969;28;19920;-72
2023/01/02 10:38:10;;;;;;;;;;;10.70;99.90;;;;;;5124683;28;19991;-71
2023/01/02 10:40:37;;;;;;;;;;;10.80;99.90;;;;;;5125172;28;19951;-71
2023/01/02 10:43:04;;;;;;;;;;;10.80;99.90;;;;;;5125039;28;19995;-71
2023/01/02 10:45:31;;;;;;;;;;;10.90;99.90;;;;;;5125190;28;19991;-71
2023/01/02 10:47:57;;;;;;;;;;;10.90;99.90;;;;;;5123939;28;19959;-71
2023/01/02 10:50:26;;;;;;;;;;;11.00;99.90;;;;;;5125292;28;19954;-72
2023/01/02 10:52:54;;;;;;;;;;;11.00;99.90;;;;;;5125323;28;19955;-71
2023/01/02 10:55:33;;;;;;;;;;;11.10;99.90;;;;;;5124858;28;19986;-71
2023/01/02 10:58:03;;;;;;;;;;;11.10;99.90;;;;;;5124816;28;19920;-71
2023/01/02 11:00:31;;;;;;;;;;;11.20;99.90;;;;;;5125179;28;19982;-72
2023/01/02 11:03:05;;;;;;;;;;;11.20;99.90;;;;;;5125124;27;20145;-71
2023/01/02 11:05:31;;;;;;;;;;;11.30;99.90;;;;;;5124983;28;19987;-75
2023/01/02 11:07:58;;;;;;;;;;;11.30;99.90;;;;;;5132933;27;19986;-72
2023/01/02 11:10:27;;;;;;;;;;;11.40;99.90;;;;;;5145234;27;19986;-72
2023/01/02 11:12:55;;;;;;;;;;;11.50;99.90;;;;;;5145249;27;19955;-72
2023/01/02 11:15:26;;;;;;;;;;;11.60;99.90;;;;;;5145391;27;20178;-71
2023/01/02 11:17:52;;;;;;;;;;;11.70;99.90;;;;;;5144358;27;19919;-72
2023/01/02 11:20:22;;;;;;;;;;;11.80;99.90;;;;;;5145014;27;19923;-72
2023/01/02 11:22:49;;;;;;;;;;;12.10;99.90;;;;;;5143058;27;19986;-70
2023/01/02 11:25:20;;;;;;;;;;;12.20;99.90;;;;;;5144872;27;19982;-71
2023/01/02 11:27:47;;;;;;;;;;;12.40;99.90;;;;;;5123501;28;19951;-72
2023/01/02 11:30:26;;;;;;;;;;;12.50;99.90;;;;;;5124420;28;19979;-70
2023/01/02 11:33:01;;;;;;;;;;;12.60;99.90;;;;;;5124290;28;19986;-72
2023/01/02 11:35:31;;;;;;;;;;;12.70;99.90;;;;;;5124355;28;19983;-71
2023/01/02 11:38:01;;;;;;;;;;;12.80;99.90;;;;;;5123709;28;19920;-72
2023/01/02 11:40:29;;;;;;;;;;;12.80;99.90;;;;;;5124217;28;19927;-72
2023/01/02 11:45:43;;;;;;;;;;;13.00;99.90;;;;;;5123642;28;19923;-72
2023/01/02 11:48:11;;;;;;;;;;;13.10;99.90;;;;;;5123801;28;19919;-72
2023/01/02 11:50:38;;;;;;;;;;;13.20;99.90;;;;;;5124255;28;20271;-72
2023/01/02 11:53:07;;;;;;;;;;;13.30;99.90;;;;;;5124215;28;19926;-73
2023/01/02 11:55:37;;;;;;;;;;;13.30;99.90;;;;;;5124173;28;19978;-72
2023/01/02 11:58:08;;;;;;;;;;;13.40;99.90;;;;;;5143062;28;19986;-72
2023/01/02 12:00:36;;;;;;;;;;;13.50;99.90;;;;;;5148471;27;19926;-71
2023/01/02 12:03:06;;;;;;;;;;;13.60;99.90;;;;;;5148972;27;19959;-72
2023/01/02 12:05:38;;;;;;;;;;;13.70;99.90;;;;;;5149096;27;19983;-71
2023/01/02 12:08:07;;;;;;;;;;;13.80;99.90;;;;;;5148160;27;20047;-72
2023/01/02 12:10:41;;;;;;;;;;;13.90;99.90;;;;;;5148762;27;19926;-72
2023/01/02 12:13:17;;;;;;;;;;;14.10;99.90;;;;;;5148510;27;19939;-72
2023/01/02 12:15:59;;;;;;;;;;;14.20;99.90;;;;;;5148405;27;19919;-72
2023/01/02 12:18:32;;;;;;;;;;;14.30;99.90;;;;;;5148521;27;19926;-71
2023/01/02 12:21:04;;;;;;;;;;;14.30;99.90;;;;;;5148883;27;19919;-71
2023/01/02 12:23:34;;;;;;;;;;;14.40;99.90;;;;;;5148477;27;19982;-73
2023/01/02 12:26:07;;;;;;;;;;;14.40;99.90;;;;;;5147690;27;19920;-72
2023/01/02 12:28:48;;;;;;;;;;;14.50;99.90;;;;;;5147873;27;20182;-71
2023/01/02 12:31:20;;;;;;;;;;;14.50;99.90;;;;;;5148433;27;19934;-71
2023/01/02 12:33:51;;;;;;;;;;;14.60;99.90;;;;;;5148516;27;19986;-71
2023/01/02 12:36:30;;;;;;;;;;;14.50;99.90;;;;;;5147352;27;19987;-72
2023/01/02 12:39:04;;;;;;;;;;;14.50;99.90;;;;;;5148091;27;20028;-72
2023/01/02 12:41:34;;;;;;;;;;;14.60;99.90;;;;;;5148297;27;19950;-71
2023/01/02 12:44:08;;;;;;;;;;;14.60;99.90;;;;;;5148377;27;20187;-72
2023/01/02 12:46:41;;;;;;;;;;;14.50;99.90;;;;;;5147435;27;19920;-72
2023/01/02 12:49:16;;;;;;;;;;;14.50;99.90;;;;;;5147783;27;20237;-71
2023/01/02 12:51:46;;;;;;;;;;;14.50;99.90;;;;;;5148226;27;19919;-71
2023/01/02 12:54:28;;;;;;;;;;;14.40;99.90;;;;;;5147804;27;19991;-72
2023/01/02 12:57:01;;;;;;;;;;;14.40;99.90;;;;;;5147303;27;19921;-71
2023/01/02 12:59:41;;;;;;;;;;;14.40;99.90;;;;;;5148097;27;19986;-71
2023/01/02 13:02:11;;;;;;;;;;;14.40;99.90;;;;;;5134306;27;19920;-72
2023/01/02 13:04:40;;;;;;;;;;;14.40;99.90;;;;;;5144999;27;19947;-72
2023/01/02 13:07:11;;;;;;;;;;;14.40;99.90;;;;;;5126135;28;20093;-72
2023/01/02 13:09:39;;;;;;;;;;;14.30;99.90;;;;;;5134108;27;19990;-72
2023/01/02 13:12:09;;;;;;;;;;;14.40;99.90;;;;;;5146875;27;19925;-72
2023/01/02 13:14:40;;;;;;;;;;;14.40;99.90;;;;;;5144786;27;20204;-71
2023/01/02 13:17:14;;;;;;;;;;;14.40;99.90;;;;;;5146795;27;19926;-72
2023/01/02 13:19:44;;;;;;;;;;;14.50;99.90;;;;;;5145039;27;19945;-72
2023/01/02 13:22:15;;;;;;;;;;;14.50;99.90;;;;;;5147217;27;19925;-72
2023/01/02 13:24:45;;;;;;;;;;;14.50;99.90;;;;;;5146076;27;19943;-72
2023/01/02 13:27:12;;;;;;;;;;;14.50;99.90;;;;;;5146689;27;19919;-72
2023/01/02 13:29:42;;;;;;;;;;;14.40;99.90;;;;;;5147044;27;19927;-72
2023/01/02 13:32:10;;;;;;;;;;;14.30;99.90;;;;;;5147075;27;19919;-73
2023/01/02 13:34:39;;;;;;;;;;;14.30;99.90;;;;;;5145322;27;19986;-72
2023/01/02 13:37:08;;;;;;;;;;;14.30;99.90;;;;;;5125716;28;19926;-72
2023/01/02 13:39:44;;;;;;;;;;;14.30;99.90;;;;;;5126317;28;19926;-72
2023/01/02 13:45:09;;;;;;;;;;;14.20;99.90;;;;;;5126253;28;19965;-71
2023/01/02 13:47:37;;;;;;;;;;;14.20;99.90;;;;;;5125753;28;19987;-71
2023/01/02 13:50:08;;;;;;;;;;;14.20;99.90;;;;;;5126428;28;19920;-77
2023/01/02 13:52:36;;;;;;;;;;;14.10;99.90;;;;;;5126488;28;19986;-71
2023/01/02 13:55:10;;;;;;;;;;;14.10;99.90;;;;;;5135926;27;19954;-72
2023/01/02 13:57:37;;;;;;;;;;;14.00;99.90;;;;;;5157959;27;20218;-72
2023/01/02 14:00:05;;;;;;;;;;;14.00;99.90;;;;;;5167361;27;19955;-71
2023/01/02 14:02:31;;;;;;;;;;;14.00;99.90;;;;;;5167561;27;19926;-72
2023/01/02 14:04:58;;;;;;;;;;;13.90;99.90;;;;;;5167119;27;19950;-71
2023/01/02 14:07:39;;;;;;;;;;;13.80;99.90;;;;;;5166567;27;19927;-72
2023/01/02 14:10:19;;;;;;;;;;;13.80;99.90;;;;;;5142121;27;19920;-71
2023/01/02 14:12:48;;;;;;;;;;;13.80;99.90;;;;;;5125950;28;19962;-72
2023/01/02 14:15:18;;;;;;;;;;;13.80;99.90;;;;;;5123539;28;20115;-72
2023/01/02 14:17:50;;;;;;;;;;;13.70;99.90;;;;;;5124932;28;20207;-72
2023/01/02 14:20:24;;;;;;;;;;;13.70;99.90;;;;;;5125740;28;19920;-72
2023/01/02 14:22:52;;;;;;;;;;;13.60;99.90;;;;;;5124678;28;19986;-71
2023/01/02 14:25:22;;;;;;;;;;;13.50;99.90;;;;;;5123962;28;19958;-72
2023/01/02 14:27:50;;;;;;;;;;;13.50;99.90;;;;;;5124950;28;19986;-72
2023/01/02 14:30:21;;;;;;;;;;;13.40;99.90;;;;;;5125082;28;19920;-72
2023/01/02 14:32:51;;;;;;;;;;;13.40;99.90;;;;;;5125368;28;19919;-72
2023/01/02 14:35:25;;;;;;;;;;;13.40;99.90;;;;;;5125144;27;19987;-72
2023/01/02 14:37:53;;;;;;;;;;;13.30;99.90;;;;;;5124661;27;19951;-71
2023/01/02 14:40:35;;;;;;;;;;;13.20;99.90;;;;;;5125358;28;20147;-72
2023/01/02 14:45:49;;;;;;;;;;;13.30;99.90;;;;;;5124709;28;19950;-71
2023/01/02 14:48:17;;;;;;;;;;;13.20;99.90;;;;;;5127867;27;20185;-72